sensor_id;sensor_type;location;lat;lon;timestamp;temperature;humidity
42663;DHT22;44330;51.360;6.686;2022-08-01T00:01:45;19.60;84.50
42663;DHT22;44330;51.360;6.686;2022-08-01T00:04:10;19.60;84.30
42663;DHT22;44330;51.360;6.686;2022-08-01T00:06:36;19.60;84.50
42663;DHT22;44330;51.360;6.686;2022-08-01T00:09:01;19.60;84.70
42663;DHT22;44330;51.360;6.686;2022-08-01T00:11:27;19.60;84.90
42663;DHT22;44330;51.360;6.686;2022-08-01T00:13:53;19.60;84.90
42663;DHT22;44330;51.360;6.686;2022-08-01T00:16:19;19.60;85.10
42663;DHT22;44330;51.360;6.686;2022-08-01T00:18:44;19.60;84.70
42663;DHT22;44330;51.360;6.686;2022-08-01T00:21:10;19.60;84.00
42663;DHT22;44330;51.360;6.686;2022-08-01T00:23:35;19.60;83.50
42663;DHT22;44330;51.360;6.686;2022-08-01T00:26:01;19.60;84.00
42663;DHT22;44330;51.360;6.686;2022-08-01T00:28:27;19.60;83.10
42663;DHT22;44330;51.360;6.686;2022-08-01T00:30:56;19.60;83.10
42663;DHT22;44330;51.360;6.686;2022-08-01T00:33:21;19.60;83.30
42663;DHT22;44330;51.360;6.686;2022-08-01T00:35:47;19.60;83.00
42663;DHT22;44330;51.360;6.686;2022-08-01T00:38:12;19.60;83.30
42663;DHT22;44330;51.360;6.686;2022-08-01T00:40:38;19.60;83.20
42663;DHT22;44330;51.360;6.686;2022-08-01T00:43:04;19.60;83.70
42663;DHT22;44330;51.360;6.686;2022-08-01T00:45:29;19.50;84.00
42663;DHT22;44330;51.360;6.686;2022-08-01T00:47:55;19.50;84.30
42663;DHT22;44330;51.360;6.686;2022-08-01T00:50:20;19.60;84.40
42663;DHT22;44330;51.360;6.686;2022-08-01T00:52:46;19.50;84.20
42663;DHT22;44330;51.360;6.686;2022-08-01T00:55:12;19.60;84.40
42663;DHT22;44330;51.360;6.686;2022-08-01T00:57:39;19.60;84.30
42663;DHT22;44330;51.360;6.686;2022-08-01T01:00:06;19.60;83.60
42663;DHT22;44330;51.360;6.686;2022-08-01T01:02:32;19.60;82.90
42663;DHT22;44330;51.360;6.686;2022-08-01T01:04:58;19.60;83.00
42663;DHT22;44330;51.360;6.686;2022-08-01T01:10:45;19.70;83.10
42663;DHT22;44330;51.360;6.686;2022-08-01T01:13:33;19.50;83.30
42663;DHT22;44330;51.360;6.686;2022-08-01T01:16:08;19.40;83.90
42663;DHT22;44330;51.360;6.686;2022-08-01T01:18:53;19.40;84.30
42663;DHT22;44330;51.360;6.686;2022-08-01T01:26:45;19.40;85.00
42663;DHT22;44330;51.360;6.686;2022-08-01T01:29:19;19.40;84.90
42663;DHT22;44330;51.360;6.686;2022-08-01T01:31:51;19.30;84.90
42663;DHT22;44330;51.360;6.686;2022-08-01T01:34:21;19.30;84.90
42663;DHT22;44330;51.360;6.686;2022-08-01T01:36:48;19.40;84.90
42663;DHT22;44330;51.360;6.686;2022-08-01T01:39:15;19.40;84.40
42663;DHT22;44330;51.360;6.686;2022-08-01T01:41:43;19.40;84.40
42663;DHT22;44330;51.360;6.686;2022-08-01T01:44:10;19.30;84.50
42663;DHT22;44330;51.360;6.686;2022-08-01T01:46:36;19.30;84.90
42663;DHT22;44330;51.360;6.686;2022-08-01T01:49:03;19.30;84.60
42663;DHT22;44330;51.360;6.686;2022-08-01T01:51:29;19.30;84.80
42663;DHT22;44330;51.360;6.686;2022-08-01T01:53:56;19.30;84.90
42663;DHT22;44330;51.360;6.686;2022-08-01T01:56:23;19.40;84.40
42663;DHT22;44330;51.360;6.686;2022-08-01T01:58:52;19.30;84.40
42663;DHT22;44330;51.360;6.686;2022-08-01T02:01:19;19.40;84.70
42663;DHT22;44330;51.360;6.686;2022-08-01T02:03:48;19.30;84.50
42663;DHT22;44330;51.360;6.686;2022-08-01T02:06:15;19.40;85.00
42663;DHT22;44330;51.360;6.686;2022-08-01T02:08:42;19.30;84.80
42663;DHT22;44330;51.360;6.686;2022-08-01T02:11:09;19.30;85.00
42663;DHT22;44330;51.360;6.686;2022-08-01T02:13:52;19.30;85.20
42663;DHT22;44330;51.360;6.686;2022-08-01T02:16:18;19.30;85.00
42663;DHT22;44330;51.360;6.686;2022-08-01T02:18:46;19.30;85.10
42663;DHT22;44330;51.360;6.686;2022-08-01T02:21:14;19.30;85.30
42663;DHT22;44330;51.360;6.686;2022-08-01T02:23:42;19.20;85.40
42663;DHT22;44330;51.360;6.686;2022-08-01T02:26:13;19.30;85.40
42663;DHT22;44330;51.360;6.686;2022-08-01T02:28:57;19.30;85.00
42663;DHT22;44330;51.360;6.686;2022-08-01T02:31:25;19.20;85.20
42663;DHT22;44330;51.360;6.686;2022-08-01T02:34:02;19.20;85.50
42663;DHT22;44330;51.360;6.686;2022-08-01T02:36:30;19.20;85.70
42663;DHT22;44330;51.360;6.686;2022-08-01T02:39:00;19.20;85.90
42663;DHT22;44330;51.360;6.686;2022-08-01T02:41:27;19.20;86.20
42663;DHT22;44330;51.360;6.686;2022-08-01T02:43:58;19.20;85.80
42663;DHT22;44330;51.360;6.686;2022-08-01T02:46:31;19.20;85.90
42663;DHT22;44330;51.360;6.686;2022-08-01T02:49:01;19.20;86.30
42663;DHT22;44330;51.360;6.686;2022-08-01T02:51:29;19.20;86.10
42663;DHT22;44330;51.360;6.686;2022-08-01T02:53:56;19.20;86.10
42663;DHT22;44330;51.360;6.686;2022-08-01T02:56:24;19.30;86.30
42663;DHT22;44330;51.360;6.686;2022-08-01T02:59:01;19.30;86.00
42663;DHT22;44330;51.360;6.686;2022-08-01T03:01:27;19.30;85.80
42663;DHT22;44330;51.360;6.686;2022-08-01T03:03:53;19.30;86.00
42663;DHT22;44330;51.360;6.686;2022-08-01T03:06:19;19.20;86.10
42663;DHT22;44330;51.360;6.686;2022-08-01T03:08:46;19.30;86.50
42663;DHT22;44330;51.360;6.686;2022-08-01T03:11:14;19.20;86.70
42663;DHT22;44330;51.360;6.686;2022-08-01T03:13:42;19.20;86.90
42663;DHT22;44330;51.360;6.686;2022-08-01T03:16:09;19.20;87.10
42663;DHT22;44330;51.360;6.686;2022-08-01T03:18:36;19.20;86.90
42663;DHT22;44330;51.360;6.686;2022-08-01T03:21:03;19.20;86.80
42663;DHT22;44330;51.360;6.686;2022-08-01T03:23:31;19.20;86.90
42663;DHT22;44330;51.360;6.686;2022-08-01T03:25:59;19.20;87.00
42663;DHT22;44330;51.360;6.686;2022-08-01T03:28:26;19.30;87.20
42663;DHT22;44330;51.360;6.686;2022-08-01T03:30:52;19.20;87.00
42663;DHT22;44330;51.360;6.686;2022-08-01T03:33:18;19.20;87.10
42663;DHT22;44330;51.360;6.686;2022-08-01T03:35:47;19.20;87.10
42663;DHT22;44330;51.360;6.686;2022-08-01T03:38:18;19.20;87.20
42663;DHT22;44330;51.360;6.686;2022-08-01T03:40:48;19.20;87.30
42663;DHT22;44330;51.360;6.686;2022-08-01T03:43:36;19.20;87.40
42663;DHT22;44330;51.360;6.686;2022-08-01T03:46:07;19.20;87.40
42663;DHT22;44330;51.360;6.686;2022-08-01T03:48:38;19.20;87.50
42663;DHT22;44330;51.360;6.686;2022-08-01T03:51:05;19.20;87.60
42663;DHT22;44330;51.360;6.686;2022-08-01T03:53:32;19.20;87.60
42663;DHT22;44330;51.360;6.686;2022-08-01T03:56:00;19.20;87.50
42663;DHT22;44330;51.360;6.686;2022-08-01T03:58:27;19.10;87.50
42663;DHT22;44330;51.360;6.686;2022-08-01T04:00:54;19.30;87.60
42663;DHT22;44330;51.360;6.686;2022-08-01T04:03:20;19.20;87.10
42663;DHT22;44330;51.360;6.686;2022-08-01T04:05:46;19.20;86.80
42663;DHT22;44330;51.360;6.686;2022-08-01T04:08:11;19.20;87.00
42663;DHT22;44330;51.360;6.686;2022-08-01T04:10:37;19.20;86.80
42663;DHT22;44330;51.360;6.686;2022-08-01T04:13:03;19.20;86.80
42663;DHT22;44330;51.360;6.686;2022-08-01T04:15:28;19.20;86.70
42663;DHT22;44330;51.360;6.686;2022-08-01T04:17:54;19.20;86.70
42663;DHT22;44330;51.360;6.686;2022-08-01T04:20:20;19.20;86.80
42663;DHT22;44330;51.360;6.686;2022-08-01T04:22:46;19.20;86.90
42663;DHT22;44330;51.360;6.686;2022-08-01T04:25:19;19.20;86.80
42663;DHT22;44330;51.360;6.686;2022-08-01T04:27:48;19.20;87.00
42663;DHT22;44330;51.360;6.686;2022-08-01T04:30:14;19.20;87.20
42663;DHT22;44330;51.360;6.686;2022-08-01T04:32:43;19.20;87.30
42663;DHT22;44330;51.360;6.686;2022-08-01T04:35:12;19.20;87.30
42663;DHT22;44330;51.360;6.686;2022-08-01T04:37:43;19.20;87.40
42663;DHT22;44330;51.360;6.686;2022-08-01T04:40:10;19.20;87.50
42663;DHT22;44330;51.360;6.686;2022-08-01T04:42:36;19.20;87.40
42663;DHT22;44330;51.360;6.686;2022-08-01T04:45:02;19.20;87.40
42663;DHT22;44330;51.360;6.686;2022-08-01T04:47:29;19.20;87.20
42663;DHT22;44330;51.360;6.686;2022-08-01T04:49:56;19.20;87.30
42663;DHT22;44330;51.360;6.686;2022-08-01T04:52:22;19.20;87.30
42663;DHT22;44330;51.360;6.686;2022-08-01T04:54:48;19.20;87.40
42663;DHT22;44330;51.360;6.686;2022-08-01T04:57:13;19.20;87.40
42663;DHT22;44330;51.360;6.686;2022-08-01T04:59:43;19.30;86.90
42663;DHT22;44330;51.360;6.686;2022-08-01T05:02:14;19.20;86.80
42663;DHT22;44330;51.360;6.686;2022-08-01T05:04:41;19.20;86.90
42663;DHT22;44330;51.360;6.686;2022-08-01T05:07:07;19.20;87.20
42663;DHT22;44330;51.360;6.686;2022-08-01T05:09:34;19.20;87.30
42663;DHT22;44330;51.360;6.686;2022-08-01T05:12:02;19.20;87.50
42663;DHT22;44330;51.360;6.686;2022-08-01T05:14:29;19.30;87.60
42663;DHT22;44330;51.360;6.686;2022-08-01T05:17:00;19.30;87.20
42663;DHT22;44330;51.360;6.686;2022-08-01T05:19:29;19.30;86.70
42663;DHT22;44330;51.360;6.686;2022-08-01T05:21:55;19.30;86.80
42663;DHT22;44330;51.360;6.686;2022-08-01T05:24:21;19.40;86.60
42663;DHT22;44330;51.360;6.686;2022-08-01T05:26:48;19.30;86.00
42663;DHT22;44330;51.360;6.686;2022-08-01T05:29:14;19.40;86.20
42663;DHT22;44330;51.360;6.686;2022-08-01T05:31:40;19.40;86.20
42663;DHT22;44330;51.360;6.686;2022-08-01T05:34:06;19.40;86.10
42663;DHT22;44330;51.360;6.686;2022-08-01T05:36:31;19.30;85.70
42663;DHT22;44330;51.360;6.686;2022-08-01T05:38:57;19.30;85.80
42663;DHT22;44330;51.360;6.686;2022-08-01T05:41:23;19.40;85.00
42663;DHT22;44330;51.360;6.686;2022-08-01T05:43:48;19.40;84.40
42663;DHT22;44330;51.360;6.686;2022-08-01T05:46:14;19.50;84.30
42663;DHT22;44330;51.360;6.686;2022-08-01T05:48:39;19.50;82.30
42663;DHT22;44330;51.360;6.686;2022-08-01T05:51:05;19.50;81.10
42663;DHT22;44330;51.360;6.686;2022-08-01T05:53:30;19.40;81.30
42663;DHT22;44330;51.360;6.686;2022-08-01T05:55:59;19.50;81.80
42663;DHT22;44330;51.360;6.686;2022-08-01T05:58:25;19.40;80.50
42663;DHT22;44330;51.360;6.686;2022-08-01T06:00:50;19.40;79.70
42663;DHT22;44330;51.360;6.686;2022-08-01T06:03:16;19.40;79.50
42663;DHT22;44330;51.360;6.686;2022-08-01T06:05:42;19.50;79.20
42663;DHT22;44330;51.360;6.686;2022-08-01T06:08:07;19.50;80.10
42663;DHT22;44330;51.360;6.686;2022-08-01T06:10:33;19.60;79.80
42663;DHT22;44330;51.360;6.686;2022-08-01T06:12:58;19.60;79.40
42663;DHT22;44330;51.360;6.686;2022-08-01T06:15:31;19.70;80.50
42663;DHT22;44330;51.360;6.686;2022-08-01T06:17:56;19.80;80.80
42663;DHT22;44330;51.360;6.686;2022-08-01T06:20:22;19.90;81.00
42663;DHT22;44330;51.360;6.686;2022-08-01T06:22:48;20.00;80.00
42663;DHT22;44330;51.360;6.686;2022-08-01T06:25:13;20.10;78.40
42663;DHT22;44330;51.360;6.686;2022-08-01T06:27:39;20.20;76.20
42663;DHT22;44330;51.360;6.686;2022-08-01T06:30:05;20.40;73.30
42663;DHT22;44330;51.360;6.686;2022-08-01T06:32:32;20.50;71.80
42663;DHT22;44330;51.360;6.686;2022-08-01T06:34:58;20.70;70.80
42663;DHT22;44330;51.360;6.686;2022-08-01T06:37:31;20.70;67.40
42663;DHT22;44330;51.360;6.686;2022-08-01T06:40:08;20.70;66.50
42663;DHT22;44330;51.360;6.686;2022-08-01T06:42:35;20.90;66.30
42663;DHT22;44330;51.360;6.686;2022-08-01T06:45:08;20.90;66.90
42663;DHT22;44330;51.360;6.686;2022-08-01T06:47:35;21.00;63.80
42663;DHT22;44330;51.360;6.686;2022-08-01T06:50:00;21.10;55.90
42663;DHT22;44330;51.360;6.686;2022-08-01T06:52:26;21.20;57.60
42663;DHT22;44330;51.360;6.686;2022-08-01T06:54:52;21.30;56.00
42663;DHT22;44330;51.360;6.686;2022-08-01T06:57:17;21.40;59.30
42663;DHT22;44330;51.360;6.686;2022-08-01T06:59:43;21.50;50.80
42663;DHT22;44330;51.360;6.686;2022-08-01T07:02:09;21.60;47.90
42663;DHT22;44330;51.360;6.686;2022-08-01T07:04:34;21.60;46.30
42663;DHT22;44330;51.360;6.686;2022-08-01T07:07:01;21.60;49.80
42663;DHT22;44330;51.360;6.686;2022-08-01T07:09:27;21.60;52.30
42663;DHT22;44330;51.360;6.686;2022-08-01T07:11:53;21.60;51.30
42663;DHT22;44330;51.360;6.686;2022-08-01T07:14:20;21.50;51.90
42663;DHT22;44330;51.360;6.686;2022-08-01T07:16:46;21.60;51.30
42663;DHT22;44330;51.360;6.686;2022-08-01T07:19:12;21.60;53.80
42663;DHT22;44330;51.360;6.686;2022-08-01T07:21:38;21.70;55.20
42663;DHT22;44330;51.360;6.686;2022-08-01T07:24:04;21.80;58.20
42663;DHT22;44330;51.360;6.686;2022-08-01T07:26:30;22.10;51.40
42663;DHT22;44330;51.360;6.686;2022-08-01T07:28:55;22.30;50.70
42663;DHT22;44330;51.360;6.686;2022-08-01T07:31:21;22.50;41.70
42663;DHT22;44330;51.360;6.686;2022-08-01T07:33:46;22.40;30.80
42663;DHT22;44330;51.360;6.686;2022-08-01T07:36:12;22.20;23.90
42663;DHT22;44330;51.360;6.686;2022-08-01T07:38:38;22.10;23.10
42663;DHT22;44330;51.360;6.686;2022-08-01T07:41:03;22.10;27.90
42663;DHT22;44330;51.360;6.686;2022-08-01T07:43:29;22.30;39.50
42663;DHT22;44330;51.360;6.686;2022-08-01T07:45:55;22.70;28.80
42663;DHT22;44330;51.360;6.686;2022-08-01T07:48:20;23.00;22.70
42663;DHT22;44330;51.360;6.686;2022-08-01T07:50:52;23.10;12.30
42663;DHT22;44330;51.360;6.686;2022-08-01T07:53:18;23.00;22.80
42663;DHT22;44330;51.360;6.686;2022-08-01T07:55:43;23.10;9.50
42663;DHT22;44330;51.360;6.686;2022-08-01T07:58:09;23.40;18.60
42663;DHT22;44330;51.360;6.686;2022-08-01T08:00:34;23.70;20.70
42663;DHT22;44330;51.360;6.686;2022-08-01T08:03:00;23.90;1.00
42663;DHT22;44330;51.360;6.686;2022-08-01T08:05:26;24.00;13.60
42663;DHT22;44330;51.360;6.686;2022-08-01T08:07:51;23.90;1.00
42663;DHT22;44330;51.360;6.686;2022-08-01T08:10:17;24.00;7.10
42663;DHT22;44330;51.360;6.686;2022-08-01T08:12:43;23.80;1.00
42663;DHT22;44330;51.360;6.686;2022-08-01T08:15:09;23.90;1.00
42663;DHT22;44330;51.360;6.686;2022-08-01T08:17:34;24.20;1.00
42663;DHT22;44330;51.360;6.686;2022-08-01T08:20:01;24.40;1.00
42663;DHT22;44330;51.360;6.686;2022-08-01T08:22:27;24.40;1.00
42663;DHT22;44330;51.360;6.686;2022-08-01T08:24:53;24.40;1.00
42663;DHT22;44330;51.360;6.686;2022-08-01T08:27:19;24.50;1.00
42663;DHT22;44330;51.360;6.686;2022-08-01T08:29:44;24.80;1.00
42663;DHT22;44330;51.360;6.686;2022-08-01T08:32:10;25.10;99.90
42663;DHT22;44330;51.360;6.686;2022-08-01T08:34:36;24.90;1.00
42663;DHT22;44330;51.360;6.686;2022-08-01T08:37:02;25.30;1.00
42663;DHT22;44330;51.360;6.686;2022-08-01T08:39:27;25.30;99.90
42663;DHT22;44330;51.360;6.686;2022-08-01T08:41:56;25.10;99.90
42663;DHT22;44330;51.360;6.686;2022-08-01T08:44:22;25.00;99.90
42663;DHT22;44330;51.360;6.686;2022-08-01T08:46:51;25.00;99.90
42663;DHT22;44330;51.360;6.686;2022-08-01T08:49:26;25.40;99.90
42663;DHT22;44330;51.360;6.686;2022-08-01T08:51:52;25.20;99.90
42663;DHT22;44330;51.360;6.686;2022-08-01T08:54:21;25.30;99.90
42663;DHT22;44330;51.360;6.686;2022-08-01T08:56:48;25.60;99.90
42663;DHT22;44330;51.360;6.686;2022-08-01T08:59:14;25.90;99.90
42663;DHT22;44330;51.360;6.686;2022-08-01T09:01:41;25.90;99.90
42663;DHT22;44330;51.360;6.686;2022-08-01T09:04:06;26.30;99.90
42663;DHT22;44330;51.360;6.686;2022-08-01T09:06:32;26.30;1.00
42663;DHT22;44330;51.360;6.686;2022-08-01T09:08:58;26.30;64.60
42663;DHT22;44330;51.360;6.686;2022-08-01T09:11:24;25.90;99.90
42663;DHT22;44330;51.360;6.686;2022-08-01T09:14:10;25.90;99.90
42663;DHT22;44330;51.360;6.686;2022-08-01T09:16:39;25.90;33.20
42663;DHT22;44330;51.360;6.686;2022-08-01T09:19:12;25.70;99.90
42663;DHT22;44330;51.360;6.686;2022-08-01T09:21:40;25.60;99.90
42663;DHT22;44330;51.360;6.686;2022-08-01T09:24:19;25.80;99.90
42663;DHT22;44330;51.360;6.686;2022-08-01T09:26:44;25.80;17.60
42663;DHT22;44330;51.360;6.686;2022-08-01T09:29:18;25.80;99.90
42663;DHT22;44330;51.360;6.686;2022-08-01T09:31:45;25.60;1.00
42663;DHT22;44330;51.360;6.686;2022-08-01T09:34:12;25.90;99.90
42663;DHT22;44330;51.360;6.686;2022-08-01T09:37:01;26.20;99.90
42663;DHT22;44330;51.360;6.686;2022-08-01T09:39:37;26.60;24.50
42663;DHT22;44330;51.360;6.686;2022-08-01T09:42:25;26.90;99.90
42663;DHT22;44330;51.360;6.686;2022-08-01T09:44:51;26.70;99.90
42663;DHT22;44330;51.360;6.686;2022-08-01T09:47:19;26.70;1.00
42663;DHT22;44330;51.360;6.686;2022-08-01T09:49:53;26.50;99.90
42663;DHT22;44330;51.360;6.686;2022-08-01T09:52:22;26.80;99.90
42663;DHT22;44330;51.360;6.686;2022-08-01T09:54:58;26.70;99.90
42663;DHT22;44330;51.360;6.686;2022-08-01T09:57:25;26.80;90.40
42663;DHT22;44330;51.360;6.686;2022-08-01T09:59:53;26.60;99.90
42663;DHT22;44330;51.360;6.686;2022-08-01T10:02:35;26.50;1.00
42663;DHT22;44330;51.360;6.686;2022-08-01T10:05:03;26.40;99.90
42663;DHT22;44330;51.360;6.686;2022-08-01T10:07:29;26.10;99.90
42663;DHT22;44330;51.360;6.686;2022-08-01T10:09:55;26.40;99.90
42663;DHT22;44330;51.360;6.686;2022-08-01T10:12:22;26.60;1.00
42663;DHT22;44330;51.360;6.686;2022-08-01T10:14:50;26.80;99.90
42663;DHT22;44330;51.360;6.686;2022-08-01T10:17:18;27.40;99.80
42663;DHT22;44330;51.360;6.686;2022-08-01T10:19:46;27.90;38.40
42663;DHT22;44330;51.360;6.686;2022-08-01T10:22:15;28.00;1.00
42663;DHT22;44330;51.360;6.686;2022-08-01T10:24:45;28.30;99.90
42663;DHT22;44330;51.360;6.686;2022-08-01T10:27:14;28.40;50.90
42663;DHT22;44330;51.360;6.686;2022-08-01T10:29:50;28.20;1.00
42663;DHT22;44330;51.360;6.686;2022-08-01T10:32:17;28.20;99.90
42663;DHT22;44330;51.360;6.686;2022-08-01T10:34:46;28.30;99.90
42663;DHT22;44330;51.360;6.686;2022-08-01T10:37:13;28.60;1.00
42663;DHT22;44330;51.360;6.686;2022-08-01T10:39:39;28.90;99.90
42663;DHT22;44330;51.360;6.686;2022-08-01T10:42:06;29.10;99.90
42663;DHT22;44330;51.360;6.686;2022-08-01T10:44:34;28.80;99.90
42663;DHT22;44330;51.360;6.686;2022-08-01T10:47:11;28.70;99.90
42663;DHT22;44330;51.360;6.686;2022-08-01T10:56:01;29.20;99.90
42663;DHT22;44330;51.360;6.686;2022-08-01T10:58:33;29.70;99.90
42663;DHT22;44330;51.360;6.686;2022-08-01T11:01:18;29.90;91.10
42663;DHT22;44330;51.360;6.686;2022-08-01T11:04:03;30.00;99.90
42663;DHT22;44330;51.360;6.686;2022-08-01T11:08:58;30.30;98.50
42663;DHT22;44330;51.360;6.686;2022-08-01T11:11:25;29.50;94.00
42663;DHT22;44330;51.360;6.686;2022-08-01T11:16:43;27.90;20.20
42663;DHT22;44330;51.360;6.686;2022-08-01T11:19:09;27.00;1.00
42663;DHT22;44330;51.360;6.686;2022-08-01T11:27:31;26.80;96.00
42663;DHT22;44330;51.360;6.686;2022-08-01T11:32:51;27.60;1.00
42663;DHT22;44330;51.360;6.686;2022-08-01T11:35:17;27.60;99.90
42663;DHT22;44330;51.360;6.686;2022-08-01T11:37:46;27.50;99.90
42663;DHT22;44330;51.360;6.686;2022-08-01T11:40:26;27.70;99.90
42663;DHT22;44330;51.360;6.686;2022-08-01T11:45:51;28.30;47.50
42663;DHT22;44330;51.360;6.686;2022-08-01T11:48:21;28.30;99.90
42663;DHT22;44330;51.360;6.686;2022-08-01T11:50:47;28.40;15.90
42663;DHT22;44330;51.360;6.686;2022-08-01T11:53:14;28.40;10.10
42663;DHT22;44330;51.360;6.686;2022-08-01T11:55:51;28.00;1.00
42663;DHT22;44330;51.360;6.686;2022-08-01T11:58:26;27.90;1.00
42663;DHT22;44330;51.360;6.686;2022-08-01T12:00:53;27.70;1.00
42663;DHT22;44330;51.360;6.686;2022-08-01T12:03:27;27.40;15.00
42663;DHT22;44330;51.360;6.686;2022-08-01T12:05:54;27.10;42.60
42663;DHT22;44330;51.360;6.686;2022-08-01T12:08:26;26.70;99.90
42663;DHT22;44330;51.360;6.686;2022-08-01T12:10:52;27.30;99.90
42663;DHT22;44330;51.360;6.686;2022-08-01T12:13:18;28.00;99.90
42663;DHT22;44330;51.360;6.686;2022-08-01T12:15:44;27.90;8.60
42663;DHT22;44330;51.360;6.686;2022-08-01T12:18:10;27.30;1.00
42663;DHT22;44330;51.360;6.686;2022-08-01T12:20:40;27.00;58.60
42663;DHT22;44330;51.360;6.686;2022-08-01T12:23:11;26.90;99.90
42663;DHT22;44330;51.360;6.686;2022-08-01T12:25:38;27.10;99.90
42663;DHT22;44330;51.360;6.686;2022-08-01T12:28:07;27.40;32.30
42663;DHT22;44330;51.360;6.686;2022-08-01T12:30:34;27.90;1.00
42663;DHT22;44330;51.360;6.686;2022-08-01T12:33:01;28.30;99.90
42663;DHT22;44330;51.360;6.686;2022-08-01T12:35:28;28.30;99.90
42663;DHT22;44330;51.360;6.686;2022-08-01T12:37:59;28.20;99.90
42663;DHT22;44330;51.360;6.686;2022-08-01T12:40:31;28.40;99.90
42663;DHT22;44330;51.360;6.686;2022-08-01T12:43:02;27.60;99.90
42663;DHT22;44330;51.360;6.686;2022-08-01T12:45:34;27.60;99.90
42663;DHT22;44330;51.360;6.686;2022-08-01T12:48:01;27.50;99.90
42663;DHT22;44330;51.360;6.686;2022-08-01T12:50:29;27.60;99.90
42663;DHT22;44330;51.360;6.686;2022-08-01T12:52:56;27.40;99.90
42663;DHT22;44330;51.360;6.686;2022-08-01T12:55:24;27.40;1.00
42663;DHT22;44330;51.360;6.686;2022-08-01T12:58:23;27.30;1.00
42663;DHT22;44330;51.360;6.686;2022-08-01T13:00:50;27.20;99.90
42663;DHT22;44330;51.360;6.686;2022-08-01T13:03:27;27.50;99.90
42663;DHT22;44330;51.360;6.686;2022-08-01T13:05:54;27.90;90.80
42663;DHT22;44330;51.360;6.686;2022-08-01T13:08:31;27.70;34.20
42663;DHT22;44330;51.360;6.686;2022-08-01T13:11:10;27.40;1.00
42663;DHT22;44330;51.360;6.686;2022-08-01T13:13:43;27.50;20.50
42663;DHT22;44330;51.360;6.686;2022-08-01T13:16:11;27.40;1.00
42663;DHT22;44330;51.360;6.686;2022-08-01T13:18:37;27.10;1.00
42663;DHT22;44330;51.360;6.686;2022-08-01T13:21:18;26.60;31.60
42663;DHT22;44330;51.360;6.686;2022-08-01T13:29:18;25.80;29.80
42663;DHT22;44330;51.360;6.686;2022-08-01T13:31:44;25.50;99.90
42663;DHT22;44330;51.360;6.686;2022-08-01T13:34:10;25.60;99.90
42663;DHT22;44330;51.360;6.686;2022-08-01T13:36:37;25.60;33.80
42663;DHT22;44330;51.360;6.686;2022-08-01T13:39:03;25.60;18.60
42663;DHT22;44330;51.360;6.686;2022-08-01T13:41:48;25.30;50.20
42663;DHT22;44330;51.360;6.686;2022-08-01T13:44:14;25.40;91.20
42663;DHT22;44330;51.360;6.686;2022-08-01T13:46:41;25.20;62.40
42663;DHT22;44330;51.360;6.686;2022-08-01T13:49:08;25.10;59.40
42663;DHT22;44330;51.360;6.686;2022-08-01T13:51:34;25.00;99.90
42663;DHT22;44330;51.360;6.686;2022-08-01T13:54:00;24.90;99.90
42663;DHT22;44330;51.360;6.686;2022-08-01T13:56:27;24.70;99.90
42663;DHT22;44330;51.360;6.686;2022-08-01T13:58:56;24.80;99.90
42663;DHT22;44330;51.360;6.686;2022-08-01T14:01:22;24.70;99.90
42663;DHT22;44330;51.360;6.686;2022-08-01T14:03:48;24.60;99.90
42663;DHT22;44330;51.360;6.686;2022-08-01T14:06:14;24.80;1.00
42663;DHT22;44330;51.360;6.686;2022-08-01T14:08:42;25.20;99.90
42663;DHT22;44330;51.360;6.686;2022-08-01T14:11:07;25.50;99.90
42663;DHT22;44330;51.360;6.686;2022-08-01T14:13:33;25.60;99.90
42663;DHT22;44330;51.360;6.686;2022-08-01T14:15:59;25.70;99.90
42663;DHT22;44330;51.360;6.686;2022-08-01T14:18:25;25.70;99.90
42663;DHT22;44330;51.360;6.686;2022-08-01T14:20:51;25.80;99.90
42663;DHT22;44330;51.360;6.686;2022-08-01T14:23:17;26.00;99.90
42663;DHT22;44330;51.360;6.686;2022-08-01T14:25:43;26.20;99.90
42663;DHT22;44330;51.360;6.686;2022-08-01T14:28:09;26.50;99.90
42663;DHT22;44330;51.360;6.686;2022-08-01T14:30:35;26.70;99.90
42663;DHT22;44330;51.360;6.686;2022-08-01T14:33:01;26.70;99.90
42663;DHT22;44330;51.360;6.686;2022-08-01T14:35:26;26.90;99.90
42663;DHT22;44330;51.360;6.686;2022-08-01T14:37:52;27.00;99.90
42663;DHT22;44330;51.360;6.686;2022-08-01T14:40:18;26.60;99.90
42663;DHT22;44330;51.360;6.686;2022-08-01T14:42:43;26.70;99.90
42663;DHT22;44330;51.360;6.686;2022-08-01T14:45:12;26.70;99.90
42663;DHT22;44330;51.360;6.686;2022-08-01T14:47:41;26.80;99.90
42663;DHT22;44330;51.360;6.686;2022-08-01T14:50:09;26.60;87.60
42663;DHT22;44330;51.360;6.686;2022-08-01T14:52:36;26.40;99.90
42663;DHT22;44330;51.360;6.686;2022-08-01T14:55:02;26.30;96.40
42663;DHT22;44330;51.360;6.686;2022-08-01T14:57:28;26.10;74.40
42663;DHT22;44330;51.360;6.686;2022-08-01T14:59:54;26.10;82.00
42663;DHT22;44330;51.360;6.686;2022-08-01T15:02:20;25.60;55.50
42663;DHT22;44330;51.360;6.686;2022-08-01T15:04:46;25.60;99.90
42663;DHT22;44330;51.360;6.686;2022-08-01T15:07:13;26.10;99.90
42663;DHT22;44330;51.360;6.686;2022-08-01T15:09:39;26.40;99.90
42663;DHT22;44330;51.360;6.686;2022-08-01T15:12:05;26.80;84.00
42663;DHT22;44330;51.360;6.686;2022-08-01T15:14:31;26.60;4.20
42663;DHT22;44330;51.360;6.686;2022-08-01T15:19:41;26.50;30.00
42663;DHT22;44330;51.360;6.686;2022-08-01T15:22:07;26.30;1.00
42663;DHT22;44330;51.360;6.686;2022-08-01T15:24:32;26.10;1.00
42663;DHT22;44330;51.360;6.686;2022-08-01T15:26:58;26.30;12.50
42663;DHT22;44330;51.360;6.686;2022-08-01T15:29:23;26.40;29.60
42663;DHT22;44330;51.360;6.686;2022-08-01T15:31:49;26.10;1.00
42663;DHT22;44330;51.360;6.686;2022-08-01T15:34:15;26.00;17.40
42663;DHT22;44330;51.360;6.686;2022-08-01T15:36:41;26.20;3.70
42663;DHT22;44330;51.360;6.686;2022-08-01T15:39:08;26.40;6.30
42663;DHT22;44330;51.360;6.686;2022-08-01T15:41:34;26.70;1.00
42663;DHT22;44330;51.360;6.686;2022-08-01T15:44:00;27.10;1.00
42663;DHT22;44330;51.360;6.686;2022-08-01T15:46:25;27.40;1.00
42663;DHT22;44330;51.360;6.686;2022-08-01T15:48:51;27.60;1.00
42663;DHT22;44330;51.360;6.686;2022-08-01T15:51:16;27.70;1.00
42663;DHT22;44330;51.360;6.686;2022-08-01T15:53:42;27.70;1.00
42663;DHT22;44330;51.360;6.686;2022-08-01T15:56:07;27.80;99.90
42663;DHT22;44330;51.360;6.686;2022-08-01T15:58:33;27.50;99.90
42663;DHT22;44330;51.360;6.686;2022-08-01T16:00:59;27.40;1.00
42663;DHT22;44330;51.360;6.686;2022-08-01T16:03:25;27.20;99.90
42663;DHT22;44330;51.360;6.686;2022-08-01T16:05:52;27.20;99.90
42663;DHT22;44330;51.360;6.686;2022-08-01T16:08:21;27.20;99.90
42663;DHT22;44330;51.360;6.686;2022-08-01T16:10:46;27.10;99.90
42663;DHT22;44330;51.360;6.686;2022-08-01T16:13:12;26.90;99.90
42663;DHT22;44330;51.360;6.686;2022-08-01T16:15:38;26.40;99.90
42663;DHT22;44330;51.360;6.686;2022-08-01T16:18:06;26.60;99.90